createdAt,value
2022-08-16T00:00:46.671Z,97625.03
2022-08-16T00:03:15.024Z,97628.44
2022-08-16T00:05:48.039Z,97631.81
2022-08-16T00:08:35.757Z,97633.50
2022-08-16T00:11:06.319Z,97627.19
2022-08-16T00:13:41.904Z,97630.13
2022-08-16T00:17:11.403Z,97624.00
2022-08-16T00:19:00.677Z,97630.91
2022-08-16T00:21:29.207Z,97638.06
2022-08-16T00:23:57.776Z,97633.22
2022-08-16T00:26:36.291Z,97619.13
2022-08-16T00:29:16.067Z,97635.56
2022-08-16T00:31:59.487Z,97636.00
2022-08-16T00:34:44.087Z,97629.69
2022-08-16T00:37:18.735Z,97634.31
2022-08-16T00:39:58.653Z,97628.00
2022-08-16T00:42:32.164Z,97628.84
2022-08-16T00:45:16.732Z,97628.00
2022-08-16T00:47:48.915Z,97629.50
2022-08-16T00:50:21.253Z,97631.56
2022-08-16T00:52:51.301Z,97625.06
2022-08-16T00:55:22.366Z,97629.91
2022-08-16T00:58:00.145Z,97635.34
2022-08-16T01:00:32.339Z,97641.44
2022-08-16T01:03:11.729Z,97637.06
2022-08-16T01:05:41.194Z,97628.00
2022-08-16T01:08:36.237Z,97641.00
2022-08-16T01:11:00.120Z,97634.03
2022-08-16T01:13:33.194Z,97642.88
2022-08-16T01:16:04.756Z,97643.03
2022-08-16T01:18:45.534Z,97660.25
2022-08-16T01:21:52.480Z,97654.59
2022-08-16T01:24:52.018Z,97648.47
2022-08-16T01:27:53.079Z,97664.41
2022-08-16T01:30:27.867Z,97670.25
2022-08-16T01:33:02.832Z,97670.19
2022-08-16T01:35:58.963Z,97678.91
2022-08-16T01:38:29.569Z,97673.03
2022-08-16T01:41:02.562Z,97678.94
2022-08-16T01:43:33.661Z,97675.22
2022-08-16T01:46:30.206Z,97689.44
2022-08-16T01:48:56.794Z,97691.50
2022-08-16T01:51:27.792Z,97693.81
2022-08-16T01:53:57.057Z,97696.16
2022-08-16T01:56:29.003Z,97683.72
2022-08-16T01:59:00.720Z,97680.75
2022-08-16T02:01:31.813Z,97671.13
2022-08-16T02:04:11.177Z,97671.13
2022-08-16T02:06:46.087Z,97682.28
2022-08-16T02:09:21.184Z,97679.78
2022-08-16T02:11:56.591Z,97675.97
2022-08-16T02:14:29.282Z,97656.66
2022-08-16T02:17:02.438Z,97674.06
2022-08-16T02:20:00.222Z,97674.50
2022-08-16T02:22:34.664Z,97679.78
2022-08-16T02:25:11.052Z,97675.97
2022-08-16T02:27:41.206Z,97675.53
2022-08-16T02:30:36.861Z,97670.06
2022-08-16T02:33:04.175Z,97675.28
2022-08-16T02:35:32.213Z,97670.00
2022-08-16T02:38:01.456Z,97662.84
2022-08-16T02:40:29.489Z,97671.63
2022-08-16T02:42:57.499Z,97679.09
2022-08-16T02:45:27.846Z,97688.19
2022-08-16T02:48:00.224Z,97688.00
2022-08-16T02:50:54.230Z,97687.56
2022-08-16T02:53:23.527Z,97692.91
2022-08-16T02:55:52.616Z,97677.56
2022-08-16T02:58:25.170Z,97672.72
2022-08-16T03:00:56.015Z,97696.38
2022-08-16T03:04:49.735Z,97692.34
2022-08-16T03:06:42.227Z,97679.28
2022-08-16T03:09:16.308Z,97682.91
2022-08-16T03:11:48.947Z,97690.72
2022-08-16T03:14:21.342Z,97699.53
2022-08-16T03:16:59.424Z,97705.84
2022-08-16T03:19:52.751Z,97706.91
2022-08-16T03:22:28.464Z,97724.16
2022-08-16T03:25:02.972Z,97730.66
2022-08-16T03:27:33.480Z,97735.53
2022-08-16T03:30:15.271Z,97753.78
2022-08-16T03:32:51.716Z,97749.66
2022-08-16T03:35:32.701Z,97756.41
2022-08-16T03:38:04.403Z,97739.22
2022-08-16T03:40:54.103Z,97732.06
2022-08-16T03:43:52.029Z,97745.13
2022-08-16T03:46:48.332Z,97742.59
2022-08-16T03:49:10.835Z,97745.13
2022-08-16T03:51:43.067Z,97759.41
2022-08-16T03:54:17.059Z,97754.41
2022-08-16T03:56:56.997Z,97761.22
2022-08-16T03:59:30.405Z,97768.34
2022-08-16T04:02:02.794Z,97768.81
2022-08-16T04:04:33.971Z,97773.63
2022-08-16T04:07:07.225Z,97781.25
2022-08-16T04:09:40.803Z,97775.72
2022-08-16T04:12:53.706Z,97773.63
2022-08-16T04:15:02.298Z,97779.72
2022-08-16T04:17:35.296Z,97772.00
2022-08-16T04:20:23.639Z,97767.97
2022-08-16T04:22:56.564Z,97765.25
2022-08-16T04:25:27.385Z,97765.50
2022-08-16T04:27:55.904Z,97754.03
2022-08-16T04:30:34.845Z,97768.50
2022-08-16T04:33:04.680Z,97760.25
2022-08-16T04:35:35.355Z,97759.41
2022-08-16T04:38:10.656Z,97753.34
2022-08-16T04:40:50.204Z,97759.72
2022-08-16T04:43:19.054Z,97763.22
2022-08-16T04:45:47.538Z,97759.13
2022-08-16T04:48:34.358Z,97756.44
2022-08-16T04:51:12.008Z,97752.91
2022-08-16T04:53:46.286Z,97755.25
2022-08-16T04:56:16.644Z,97756.50
2022-08-16T04:58:46.961Z,97747.25
2022-08-16T05:01:18.386Z,97766.88
2022-08-16T05:03:59.739Z,97767.84
2022-08-16T05:06:42.146Z,97764.38
2022-08-16T05:09:29.830Z,97765.13
2022-08-16T05:11:58.217Z,97769.59
2022-08-16T05:14:45.677Z,97760.59
2022-08-16T05:17:24.903Z,97764.19
2022-08-16T05:19:58.269Z,97754.34
2022-08-16T05:22:39.404Z,97752.09
2022-08-16T05:25:16.012Z,97752.97
2022-08-16T05:27:49.873Z,97753.19
2022-08-16T05:30:34.485Z,97754.31
2022-08-16T05:33:16.289Z,97755.13
2022-08-16T05:35:55.478Z,97753.88
2022-08-16T05:38:38.934Z,97759.25
2022-08-16T05:41:13.819Z,97749.38
2022-08-16T05:43:47.805Z,97742.66
2022-08-16T05:46:33.834Z,97744.38
2022-08-16T05:49:16.467Z,97753.03
2022-08-16T05:51:51.210Z,97757.78
2022-08-16T05:54:24.703Z,97757.06
2022-08-16T05:56:56.674Z,97758.75
2022-08-16T05:59:26.972Z,97760.88
2022-08-16T06:01:56.691Z,97746.97
2022-08-16T06:04:34.878Z,97734.75
2022-08-16T06:07:09.089Z,97724.03
2022-08-16T06:09:59.871Z,97719.19
2022-08-16T06:12:31.740Z,97737.13
2022-08-16T06:15:10.903Z,97736.06
2022-08-16T06:17:43.797Z,97738.38
2022-08-16T06:20:34.736Z,97745.13
2022-08-16T06:23:21.652Z,97743.88
2022-08-16T06:25:57.197Z,97739.00
2022-08-16T06:28:35.537Z,97725.25
2022-08-16T06:31:12.300Z,97718.25
2022-08-16T06:33:44.723Z,97707.28
2022-08-16T06:36:17.009Z,97686.16
2022-08-16T06:38:59.765Z,97690.53
2022-08-16T06:41:53.830Z,97695.81
2022-08-16T06:44:44.260Z,97703.53
2022-08-16T06:47:25.320Z,97712.34
2022-08-16T06:50:28.858Z,97704.88
2022-08-16T06:53:03.863Z,97705.16
2022-08-16T06:55:38.626Z,97699.84
2022-08-16T06:58:21.917Z,97690.56
2022-08-16T07:01:02.671Z,97699.06
2022-08-16T07:03:55.581Z,97709.56
2022-08-16T07:06:21.744Z,97716.06
2022-08-16T07:08:50.390Z,97715.91
2022-08-16T07:11:20.978Z,97712.13
2022-08-16T07:14:26.498Z,97715.28
2022-08-16T07:16:59.243Z,97709.09
2022-08-16T07:20:01.476Z,97706.19
2022-08-16T07:22:37.873Z,97723.44
2022-08-16T07:25:16.065Z,97726.41
2022-08-16T07:27:45.458Z,97729.25
2022-08-16T07:30:39.091Z,97728.13
2022-08-16T07:33:07.523Z,97723.03
2022-08-16T07:35:44.330Z,97720.09
2022-08-16T07:38:20.057Z,97709.81
2022-08-16T07:41:01.245Z,97725.47
2022-08-16T07:43:31.877Z,97736.97
2022-08-16T07:46:04.358Z,97732.22
2022-08-16T07:48:36.859Z,97733.19
2022-08-16T07:51:08.960Z,97729.72
2022-08-16T07:53:43.824Z,97729.56
2022-08-16T07:56:14.543Z,97724.13
2022-08-16T07:58:43.492Z,97712.19
2022-08-16T08:01:15.205Z,97705.44
2022-08-16T08:03:52.254Z,97708.72
2022-08-16T08:06:27.838Z,97711.22
2022-08-16T08:09:00.697Z,97711.16
2022-08-16T08:11:30.247Z,97705.94
2022-08-16T08:14:03.079Z,97704.00
2022-08-16T08:16:38.135Z,97705.16
2022-08-16T08:19:26.490Z,97705.81
2022-08-16T08:22:01.507Z,97705.16
2022-08-16T08:24:38.980Z,97708.84
2022-08-16T08:27:13.463Z,97709.75
2022-08-16T08:30:52.391Z,97699.13
2022-08-16T08:32:57.604Z,97700.44
2022-08-16T08:35:30.285Z,97702.53
2022-08-16T08:38:00.445Z,97696.56
2022-08-16T08:40:30.983Z,97691.31
2022-08-16T08:43:11.409Z,97698.47
2022-08-16T08:45:47.810Z,97698.06
2022-08-16T08:48:34.112Z,97685.78
2022-08-16T08:51:14.330Z,97692.31
2022-08-16T08:53:57.607Z,97693.00
2022-08-16T08:56:32.379Z,97688.44
2022-08-16T08:59:32.085Z,97687.16
2022-08-16T09:02:00.117Z,97691.16
2022-08-16T09:04:34.879Z,97686.63
2022-08-16T09:07:05.973Z,97691.09
2022-08-16T09:09:41.011Z,97688.63
2022-08-16T09:12:36.233Z,97695.44
2022-08-16T09:15:13.746Z,97693.56
2022-08-16T09:17:51.642Z,97683.34
2022-08-16T09:20:23.796Z,97694.19
2022-08-16T09:22:56.212Z,97688.38
2022-08-16T09:25:33.516Z,97698.03
2022-08-16T09:28:08.988Z,97688.31
2022-08-16T09:30:43.172Z,97688.66
2022-08-16T09:33:12.989Z,97693.88
2022-08-16T09:35:42.593Z,97692.59
2022-08-16T09:38:31.441Z,97691.47
2022-08-16T09:41:02.033Z,97687.25
2022-08-16T09:43:59.632Z,97691.22
2022-08-16T09:46:45.785Z,97678.66
2022-08-16T09:49:05.779Z,97684.47
2022-08-16T09:51:37.317Z,97685.06
2022-08-16T09:54:09.698Z,97688.53
2022-08-16T09:56:39.539Z,97688.09
2022-08-16T09:59:23.538Z,97688.63
2022-08-16T10:01:53.444Z,97696.72
2022-08-16T10:04:33.435Z,97683.19
2022-08-16T10:07:15.226Z,97693.50
2022-08-16T10:09:55.355Z,97698.88
2022-08-16T10:12:46.750Z,97704.44
2022-08-16T10:15:23.989Z,97693.28
2022-08-16T10:18:01.224Z,97701.06
2022-08-16T10:20:38.250Z,97703.59
2022-08-16T10:23:08.587Z,97704.72
2022-08-16T10:27:18.899Z,97707.75
2022-08-16T10:28:39.864Z,97712.50
2022-08-16T10:31:14.448Z,97713.59
2022-08-16T10:33:46.740Z,97712.16
2022-08-16T10:36:38.758Z,97708.75
2022-08-16T10:39:05.216Z,97710.59
2022-08-16T10:41:36.157Z,97693.56
2022-08-16T10:44:04.586Z,97678.56
2022-08-16T10:46:41.794Z,97695.50
2022-08-16T10:49:18.236Z,97702.72
2022-08-16T10:52:02.037Z,97704.94
2022-08-16T10:54:33.891Z,97708.22
2022-08-16T10:57:24.430Z,97715.41
2022-08-16T10:59:58.283Z,97697.91
2022-08-16T11:03:37.599Z,97705.78
2022-08-16T11:05:16.453Z,97707.53
2022-08-16T11:07:52.279Z,97704.81
2022-08-16T11:16:26.421Z,97700.88
2022-08-16T11:19:05.664Z,97695.94
2022-08-16T11:24:41.410Z,97703.56
2022-08-16T11:27:19.574Z,97689.03
2022-08-16T11:29:52.262Z,97691.50
2022-08-16T11:32:29.900Z,97687.16
2022-08-16T11:35:10.323Z,97694.34
2022-08-16T11:40:36.274Z,97688.56
2022-08-16T11:43:06.749Z,97680.69
2022-08-16T11:45:38.192Z,97684.25
2022-08-16T11:48:06.017Z,97687.75
2022-08-16T11:50:35.025Z,97692.78
2022-08-16T11:53:04.043Z,97687.47
2022-08-16T11:55:32.905Z,97690.47
2022-08-16T11:58:01.476Z,97694.16
2022-08-16T12:00:49.768Z,97684.75
2022-08-16T12:03:21.085Z,97682.19
2022-08-16T12:06:00.840Z,97685.84
2022-08-16T12:08:29.834Z,97664.38
2022-08-16T12:11:02.393Z,97663.13
2022-08-16T12:13:30.615Z,97674.31
2022-08-16T12:15:58.019Z,97658.69
2022-08-16T12:18:25.689Z,97664.63
2022-08-16T12:20:55.197Z,97662.34
2022-08-16T12:23:26.211Z,97648.44
2022-08-16T12:25:53.468Z,97641.09
2022-08-16T12:28:36.648Z,97635.22
2022-08-16T12:31:11.057Z,97638.00
2022-08-16T12:33:45.097Z,97640.38
2022-08-16T12:36:14.167Z,97639.16
2022-08-16T12:38:48.237Z,97640.84
2022-08-16T12:41:24.655Z,97642.00
2022-08-16T12:43:57.067Z,97640.06
2022-08-16T12:46:31.146Z,97630.66
2022-08-16T12:49:03.554Z,97632.56
2022-08-16T12:51:59.555Z,97627.00
2022-08-16T12:54:25.083Z,97627.84
2022-08-16T12:56:52.686Z,97626.41
2022-08-16T12:59:21.760Z,97627.53
2022-08-16T13:01:58.336Z,97630.28
2022-08-16T13:04:33.287Z,97629.78
2022-08-16T13:09:42.388Z,97637.03
2022-08-16T13:12:25.000Z,97629.56
2022-08-16T13:14:54.121Z,97632.44
2022-08-16T13:17:26.315Z,97630.75
2022-08-16T13:20:07.002Z,97624.63
2022-08-16T13:22:49.969Z,97627.88
2022-08-16T13:25:22.977Z,97624.84
2022-08-16T13:28:14.969Z,97628.97
2022-08-16T13:30:49.631Z,97624.53
2022-08-16T13:33:29.836Z,97627.59
2022-08-16T13:36:01.436Z,97618.78
2022-08-16T13:38:37.061Z,97626.84
2022-08-16T13:41:11.173Z,97617.34
2022-08-16T13:43:40.032Z,97630.13
2022-08-16T13:46:07.978Z,97626.09
2022-08-16T13:48:44.764Z,97628.91
2022-08-16T13:51:19.041Z,97631.13
2022-08-16T13:53:49.727Z,97630.88
2022-08-16T13:56:25.151Z,97637.47
2022-08-16T13:58:54.873Z,97641.88
2022-08-16T14:01:23.374Z,97648.22
2022-08-16T14:03:54.636Z,97637.34
2022-08-16T14:06:24.884Z,97644.91
2022-08-16T14:09:06.136Z,97666.47
2022-08-16T14:11:35.680Z,97648.03
2022-08-16T14:14:05.300Z,97661.16
2022-08-16T14:16:34.815Z,97678.28
2022-08-16T14:19:03.757Z,97687.50
2022-08-16T14:21:34.889Z,97665.34
2022-08-16T14:24:07.871Z,97688.84
2022-08-16T14:26:44.056Z,97710.38
2022-08-16T14:29:11.658Z,97672.97
2022-08-16T14:31:39.848Z,97707.53
2022-08-16T14:34:11.141Z,97702.59
2022-08-16T14:36:40.843Z,97716.06
2022-08-16T14:39:09.640Z,97703.34
2022-08-16T14:41:37.722Z,97723.69
2022-08-16T14:44:08.372Z,97712.09
2022-08-16T14:46:36.379Z,97682.13
2022-08-16T14:49:04.611Z,97677.97
2022-08-16T14:51:38.041Z,97678.47
2022-08-16T14:54:05.828Z,97669.72
2022-08-16T14:56:43.003Z,97654.50
2022-08-16T14:59:14.263Z,97656.63
2022-08-16T15:01:57.378Z,97661.28
2022-08-16T15:04:39.965Z,97677.66
2022-08-16T15:07:11.088Z,97688.63
2022-08-16T15:09:59.991Z,97684.13
2022-08-16T15:12:33.907Z,97680.97
2022-08-16T15:15:12.537Z,97677.41
2022-08-16T15:17:56.184Z,97670.81
2022-08-16T15:20:31.679Z,97672.47
2022-08-16T15:23:02.159Z,97672.00
2022-08-16T15:25:34.227Z,97669.44
2022-08-16T15:28:05.599Z,97664.38
2022-08-16T15:30:57.780Z,97656.72
2022-08-16T15:33:27.653Z,97672.03
2022-08-16T15:35:58.085Z,97664.50
2022-08-16T15:38:55.343Z,97673.31
2022-08-16T15:41:43.073Z,97676.19
2022-08-16T15:44:22.327Z,97660.06
2022-08-16T15:46:56.355Z,97669.25
2022-08-16T15:49:37.296Z,97660.63
2022-08-16T15:52:12.286Z,97658.72
2022-08-16T15:54:52.572Z,97652.22
2022-08-16T15:57:23.289Z,97658.78
2022-08-16T15:59:56.087Z,97652.09
2022-08-16T16:02:38.630Z,97643.72
2022-08-16T16:05:10.249Z,97657.84
2022-08-16T16:07:40.694Z,97655.25
2022-08-16T16:10:13.039Z,97655.91
2022-08-16T16:12:52.988Z,97653.78
2022-08-16T16:15:25.065Z,97659.06
2022-08-16T16:17:53.737Z,97661.25
2022-08-16T16:20:24.206Z,97649.50
2022-08-16T16:22:52.587Z,97669.38
2022-08-16T16:25:20.464Z,97668.91
2022-08-16T16:27:49.118Z,97659.78
2022-08-16T16:30:37.794Z,97645.75
2022-08-16T16:33:21.264Z,97653.28
2022-08-16T16:35:57.259Z,97649.56
2022-08-16T16:38:30.992Z,97644.97
2022-08-16T16:41:02.515Z,97647.28
2022-08-16T16:43:31.433Z,97641.97
2022-08-16T16:46:01.643Z,97639.34
2022-08-16T16:48:34.818Z,97642.78
2022-08-16T16:51:09.127Z,97641.63
2022-08-16T16:53:41.552Z,97641.19
2022-08-16T16:56:19.834Z,97644.22
2022-08-16T16:59:01.449Z,97644.47
2022-08-16T17:01:35.019Z,97652.22
2022-08-16T17:04:31.971Z,97648.97
2022-08-16T17:07:02.135Z,97646.22
2022-08-16T17:09:30.457Z,97648.38
2022-08-16T17:11:58.628Z,97650.75
2022-08-16T17:14:31.891Z,97648.78
2022-08-16T17:17:04.657Z,97650.19
2022-08-16T17:19:32.222Z,97653.25
2022-08-16T17:22:00.605Z,97647.81
2022-08-16T17:24:39.842Z,97640.75
2022-08-16T17:27:08.306Z,97640.06
2022-08-16T17:29:45.909Z,97648.06
2022-08-16T17:32:47.509Z,97644.28
2022-08-16T17:35:18.172Z,97643.91
2022-08-16T17:37:51.509Z,97642.50
2022-08-16T17:40:40.346Z,97651.88
2022-08-16T17:43:16.421Z,97659.53
2022-08-16T17:45:44.530Z,97661.69
2022-08-16T17:48:12.335Z,97666.13
2022-08-16T17:50:41.762Z,97665.38
2022-08-16T17:53:10.447Z,97669.91
2022-08-16T17:55:42.194Z,97673.88
2022-08-16T17:58:22.930Z,97688.81
2022-08-16T18:00:53.350Z,97700.03
2022-08-16T18:04:02.993Z,97695.06
2022-08-16T18:06:19.233Z,97693.13
2022-08-16T18:08:48.425Z,97693.47
2022-08-16T18:11:18.316Z,97690.31
2022-08-16T18:13:46.832Z,97703.72
2022-08-16T18:16:16.944Z,97709.06
2022-08-16T18:18:46.155Z,97716.94
2022-08-16T18:21:34.068Z,97712.56
2022-08-16T18:24:01.766Z,97728.81
2022-08-16T18:26:28.789Z,97720.03
2022-08-16T18:28:56.333Z,97724.50
2022-08-16T18:31:23.267Z,97732.75
2022-08-16T18:33:54.724Z,97744.03
2022-08-16T18:36:25.134Z,97752.09
2022-08-16T18:38:53.310Z,97753.13
2022-08-16T18:41:22.584Z,97767.06
2022-08-16T18:43:58.839Z,97766.19
2022-08-16T18:46:39.965Z,97778.50
2022-08-16T18:49:09.474Z,97776.41
2022-08-16T18:51:42.616Z,97779.59
2022-08-16T18:54:12.485Z,97764.22
2022-08-16T18:56:56.438Z,97765.53
2022-08-16T18:59:31.054Z,97771.88
2022-08-16T19:02:05.354Z,97777.78
2022-08-16T19:04:50.466Z,97778.47
2022-08-16T19:07:31.271Z,97800.06
2022-08-16T19:10:01.269Z,97793.31
2022-08-16T19:12:38.540Z,97784.28
2022-08-16T19:15:15.742Z,97800.75
2022-08-16T19:17:45.469Z,97801.66
2022-08-16T19:20:19.990Z,97806.53
2022-08-16T19:23:05.813Z,97794.72
2022-08-16T19:25:48.311Z,97801.69
2022-08-16T19:28:49.620Z,97802.75
2022-08-16T19:31:20.620Z,97802.97
2022-08-16T19:33:53.420Z,97813.97
2022-08-16T19:36:34.059Z,97813.50
2022-08-16T19:39:07.276Z,97798.28
2022-08-16T19:41:38.504Z,97802.97
2022-08-16T19:44:06.897Z,97801.75
2022-08-16T19:46:35.708Z,97800.88
2022-08-16T19:49:03.888Z,97807.25
2022-08-16T19:51:31.433Z,97815.94
2022-08-16T19:53:58.412Z,97822.13
2022-08-16T19:56:27.150Z,97808.63
2022-08-16T20:01:44.549Z,97803.22
2022-08-16T20:04:13.014Z,97807.66
2022-08-16T20:06:43.524Z,97815.91
2022-08-16T20:09:15.391Z,97814.63
2022-08-16T20:11:45.012Z,97810.63
2022-08-16T20:14:24.466Z,97801.97
2022-08-16T20:16:58.935Z,97811.72
2022-08-16T20:19:28.203Z,97807.06
2022-08-16T20:21:56.725Z,97808.28
2022-08-16T20:24:40.168Z,97808.31
2022-08-16T20:27:12.428Z,97809.56
2022-08-16T20:29:41.671Z,97827.53
2022-08-16T20:32:13.326Z,97829.84
2022-08-16T20:34:42.057Z,97826.28
2022-08-16T20:37:12.866Z,97823.94
2022-08-16T20:39:41.373Z,97823.13
2022-08-16T20:42:08.416Z,97827.31
2022-08-16T20:44:35.824Z,97829.88
2022-08-16T20:47:03.044Z,97830.91
2022-08-16T20:49:30.713Z,97836.22
2022-08-16T20:51:59.658Z,97840.84
2022-08-16T20:54:29.584Z,97842.75
2022-08-16T20:56:56.937Z,97842.94
2022-08-16T20:59:24.409Z,97835.78
2022-08-16T21:01:52.204Z,97837.25
2022-08-16T21:04:21.777Z,97839.13
2022-08-16T21:06:54.314Z,97841.47
2022-08-16T21:09:27.907Z,97836.22
2022-08-16T21:11:59.031Z,97842.25
2022-08-16T21:14:26.141Z,97839.91
2022-08-16T21:16:55.732Z,97840.09
2022-08-16T21:19:23.184Z,97847.44
2022-08-16T21:21:50.564Z,97849.97
2022-08-16T21:24:17.998Z,97849.91
2022-08-16T21:26:55.069Z,97848.63
2022-08-16T21:29:25.118Z,97849.03
2022-08-16T21:32:12.604Z,97857.66
2022-08-16T21:34:41.309Z,97858.75
2022-08-16T21:37:08.550Z,97852.63
2022-08-16T21:39:36.444Z,97854.69
2022-08-16T21:42:12.317Z,97864.38
2022-08-16T21:44:39.959Z,97866.59
2022-08-16T21:47:08.170Z,97870.50
2022-08-16T21:49:37.854Z,97868.59
2022-08-16T21:52:07.611Z,97888.78
2022-08-16T21:54:35.771Z,97884.56
2022-08-16T21:57:10.179Z,97885.97
2022-08-16T21:59:38.618Z,97880.75
2022-08-16T22:02:06.883Z,97878.53
2022-08-16T22:04:37.580Z,97875.56
2022-08-16T22:07:06.049Z,97878.53
2022-08-16T22:09:33.430Z,97877.84
2022-08-16T22:12:03.873Z,97883.22
2022-08-16T22:14:31.047Z,97883.78
2022-08-16T22:16:58.660Z,97886.69
2022-08-16T22:19:25.887Z,97883.81
2022-08-16T22:21:53.255Z,97893.50
2022-08-16T22:24:20.552Z,97878.06
2022-08-16T22:26:48.128Z,97874.50
2022-08-16T22:29:15.260Z,97875.59
2022-08-16T22:31:44.488Z,97863.84
2022-08-16T22:34:12.450Z,97861.50
2022-08-16T22:36:40.085Z,97869.69
2022-08-16T22:39:10.966Z,97862.56
2022-08-16T22:41:40.283Z,97862.94
2022-08-16T22:44:07.597Z,97858.31
2022-08-16T22:46:36.916Z,97850.53
2022-08-16T22:49:08.175Z,97844.13
2022-08-16T22:51:38.314Z,97847.28
2022-08-16T22:54:42.570Z,97847.94
2022-08-16T22:56:54.834Z,97847.34
2022-08-16T22:59:21.839Z,97841.81
2022-08-16T23:01:49.387Z,97843.09
2022-08-16T23:04:18.360Z,97845.84
2022-08-16T23:06:47.601Z,97847.94
2022-08-16T23:09:14.586Z,97846.81
2022-08-16T23:11:42.748Z,97835.75
2022-08-16T23:14:10.030Z,97843.38
2022-08-16T23:16:37.385Z,97839.22
2022-08-16T23:19:11.135Z,97843.00
2022-08-16T23:21:41.948Z,97845.06
2022-08-16T23:24:10.340Z,97842.94
2022-08-16T23:26:46.267Z,97835.47
2022-08-16T23:29:23.642Z,97826.81
2022-08-16T23:32:11.252Z,97829.13
2022-08-16T23:34:38.541Z,97828.84
2022-08-16T23:37:06.755Z,97831.41
2022-08-16T23:39:36.190Z,97828.41
2022-08-16T23:42:12.595Z,97826.81
2022-08-16T23:44:57.932Z,97825.44
2022-08-16T23:47:26.471Z,97827.16
2022-08-16T23:50:01.203Z,97818.53
2022-08-16T23:52:53.473Z,97808.56
2022-08-16T23:55:17.944Z,97818.31
2022-08-16T23:57:46.266Z,97822.09
